createdAt,value
2022-12-23T00:01:05.858Z,86.70
2022-12-23T00:06:13.767Z,86.60
2022-12-23T00:11:19.259Z,86.52
2022-12-23T00:16:22.128Z,86.48
2022-12-23T00:21:23.953Z,86.62
2022-12-23T00:26:27.752Z,86.32
2022-12-23T00:31:30.769Z,86.25
2022-12-23T00:36:32.735Z,86.21
2022-12-23T00:41:54.569Z,86.24
2022-12-23T00:46:56.397Z,86.16
2022-12-23T00:51:58.617Z,85.67
2022-12-23T00:57:01.053Z,85.78
2022-12-23T01:02:22.124Z,86.12
2022-12-23T01:07:24.825Z,86.07
2022-12-23T01:12:26.583Z,85.58
2022-12-23T01:17:28.274Z,85.36
2022-12-23T01:22:29.990Z,85.39
2022-12-23T01:27:31.775Z,85.70
2022-12-23T01:32:33.464Z,85.90
2022-12-23T01:37:35.404Z,85.90
2022-12-23T01:42:46.771Z,85.91
2022-12-23T01:48:01.582Z,86.04
2022-12-23T01:53:15.519Z,86.19
2022-12-23T01:58:23.250Z,86.11
2022-12-23T02:03:43.768Z,86.28
2022-12-23T02:09:12.113Z,86.38
2022-12-23T02:14:54.808Z,86.40
2022-12-23T02:20:29.376Z,86.46
2022-12-23T02:25:57.619Z,86.50
2022-12-23T02:31:19.958Z,86.86
2022-12-23T02:36:42.872Z,86.91
2022-12-23T02:42:02.486Z,86.94
2022-12-23T02:47:11.425Z,86.74
2022-12-23T02:52:15.883Z,86.77
2022-12-23T02:57:23.633Z,87.20
2022-12-23T03:02:25.474Z,87.28
2022-12-23T03:07:35.389Z,87.28
2022-12-23T03:13:15.376Z,87.17
2022-12-23T03:18:52.556Z,87.28
2022-12-23T03:24:03.986Z,87.39
2022-12-23T03:29:17.430Z,87.33
2022-12-23T03:34:24.455Z,87.33
2022-12-23T03:39:32.933Z,87.31
2022-12-23T03:45:03.610Z,87.39
2022-12-23T03:50:11.367Z,87.61
2022-12-23T03:55:22.173Z,87.59
2022-12-23T04:00:25.464Z,87.29
2022-12-23T04:05:35.682Z,87.40
2022-12-23T04:10:37.761Z,87.21
2022-12-23T04:15:41.397Z,87.25
2022-12-23T04:20:43.283Z,87.56
2022-12-23T04:25:44.990Z,87.80
2022-12-23T04:30:46.859Z,88.00
2022-12-23T04:35:48.634Z,88.09
2022-12-23T04:40:50.375Z,88.12
2022-12-23T04:45:52.308Z,87.99
2022-12-23T04:50:53.996Z,88.01
2022-12-23T04:55:55.695Z,87.92
2022-12-23T05:01:05.797Z,88.00
2022-12-23T05:06:08.163Z,87.98
2022-12-23T05:11:09.866Z,88.16
2022-12-23T05:16:11.777Z,88.34
2022-12-23T05:21:13.898Z,88.00
2022-12-23T05:26:15.619Z,88.12
2022-12-23T05:31:17.519Z,88.11
2022-12-23T05:36:19.411Z,88.00
2022-12-23T05:41:21.118Z,87.93
2022-12-23T05:46:26.805Z,87.97
2022-12-23T05:51:29.080Z,87.95
2022-12-23T05:56:30.848Z,87.93
2022-12-23T06:01:32.810Z,87.89
2022-12-23T06:06:34.748Z,87.97
2022-12-23T06:11:36.566Z,87.98
2022-12-23T06:16:38.384Z,87.88
2022-12-23T06:21:40.126Z,87.72
2022-12-23T06:26:42.563Z,87.66
2022-12-23T06:31:44.721Z,87.71
2022-12-23T06:36:46.713Z,87.68
2022-12-23T06:41:48.541Z,87.60
2022-12-23T06:46:50.322Z,87.61
2022-12-23T06:51:52.200Z,87.67
2022-12-23T06:56:53.881Z,87.47
2022-12-23T07:01:55.750Z,87.47
2022-12-23T07:06:57.977Z,87.46
2022-12-23T07:11:59.706Z,87.48
2022-12-23T07:17:01.690Z,87.59
2022-12-23T07:22:03.545Z,87.49
2022-12-23T07:27:05.372Z,87.40
2022-12-23T07:32:07.172Z,87.23
2022-12-23T07:37:09.098Z,87.19
2022-12-23T07:47:32.544Z,87.28
2022-12-23T07:52:34.405Z,87.37
2022-12-23T07:57:38.319Z,87.40
2022-12-23T08:02:41.141Z,87.18
2022-12-23T08:07:45.153Z,87.28
2022-12-23T08:12:47.017Z,87.30
2022-12-23T08:17:48.891Z,87.19
2022-12-23T08:22:50.664Z,87.04
2022-12-23T08:27:52.509Z,86.72
2022-12-23T08:32:54.257Z,86.44
2022-12-23T08:37:56.470Z,86.31
2022-12-23T08:42:58.411Z,86.32
2022-12-23T08:48:00.100Z,86.37
2022-12-23T08:53:02.071Z,86.12
2022-12-23T08:58:03.767Z,86.01
2022-12-23T09:03:05.731Z,85.79
2022-12-23T09:08:08.423Z,85.83
2022-12-23T09:13:19.921Z,85.77
2022-12-23T09:18:26.886Z,85.78
2022-12-23T09:23:28.893Z,85.76
2022-12-23T09:28:30.697Z,85.55
2022-12-23T09:33:32.491Z,85.38
2022-12-23T09:38:34.781Z,85.27
2022-12-23T09:44:05.801Z,85.11
2022-12-23T09:49:13.597Z,84.88
2022-12-23T09:54:24.397Z,84.74
2022-12-23T09:59:47.679Z,84.52
2022-12-23T10:04:52.481Z,84.58
2022-12-23T10:09:57.699Z,84.48
2022-12-23T10:15:02.547Z,84.29
2022-12-23T10:20:08.361Z,84.26
2022-12-23T10:25:32.871Z,83.71
2022-12-23T10:36:09.585Z,83.35
2022-12-23T10:41:17.397Z,82.79
2022-12-23T10:46:43.906Z,82.88
2022-12-23T10:51:51.755Z,82.61
2022-12-23T10:56:54.843Z,82.69
2022-12-23T11:02:04.401Z,82.76
2022-12-23T11:07:42.695Z,82.82
2022-12-23T11:12:44.109Z,82.87
2022-12-23T11:18:00.169Z,83.01
2022-12-23T11:23:03.989Z,83.00
2022-12-23T11:28:11.861Z,83.21
2022-12-23T11:33:28.406Z,83.25
2022-12-23T11:44:26.976Z,82.88
2022-12-23T11:50:19.450Z,82.89
2022-12-23T11:56:28.290Z,82.97
2022-12-23T12:02:06.010Z,83.26
2022-12-23T12:07:13.233Z,83.37
2022-12-23T12:12:21.144Z,83.52
2022-12-23T12:17:25.383Z,83.58
2022-12-23T12:22:33.171Z,83.37
2022-12-23T12:27:39.591Z,82.94
2022-12-23T12:33:05.667Z,82.97
2022-12-23T12:38:33.432Z,82.87
2022-12-23T12:43:40.776Z,82.95
2022-12-23T12:48:57.008Z,82.89
2022-12-23T12:54:06.214Z,83.11
2022-12-23T12:59:16.567Z,82.99
2022-12-23T13:04:33.667Z,83.14
2022-12-23T13:09:55.625Z,83.20
2022-12-23T13:15:23.620Z,83.38
2022-12-23T13:20:41.156Z,83.48
2022-12-23T13:25:47.153Z,83.60
2022-12-23T13:31:14.023Z,83.33
2022-12-23T13:36:37.322Z,83.28
2022-12-23T13:41:49.223Z,83.12
2022-12-23T13:46:57.310Z,83.12
2022-12-23T13:52:10.491Z,83.00
2022-12-23T13:57:32.031Z,82.94
2022-12-23T14:02:36.972Z,83.04
2022-12-23T14:07:44.866Z,83.19
2022-12-23T14:12:47.095Z,83.33
2022-12-23T14:18:04.905Z,83.44
2022-12-23T14:23:28.523Z,83.45
2022-12-23T14:28:55.302Z,83.72
2022-12-23T14:34:06.260Z,83.88
2022-12-23T14:39:14.062Z,83.63
2022-12-23T14:44:43.727Z,83.67
2022-12-23T14:49:45.688Z,83.69
2022-12-23T14:55:06.409Z,83.75
2022-12-23T15:00:10.315Z,84.05
2022-12-23T15:05:13.347Z,84.17
2022-12-23T15:10:21.820Z,84.12
2022-12-23T15:15:26.152Z,84.15
2022-12-23T15:20:28.378Z,83.85
2022-12-23T15:25:36.015Z,84.16
2022-12-23T15:30:48.455Z,84.09
2022-12-23T15:35:50.708Z,83.97
2022-12-23T15:41:01.559Z,84.20
2022-12-23T15:46:28.605Z,84.05
2022-12-23T15:52:05.959Z,84.00
2022-12-23T15:57:00.114Z,84.03
2022-12-23T16:02:58.461Z,84.05
2022-12-23T16:07:42.361Z,83.93
2022-12-23T16:12:44.559Z,84.12
2022-12-23T16:17:46.549Z,84.22
2022-12-23T16:22:51.268Z,83.96
2022-12-23T16:27:58.386Z,84.07
2022-12-23T16:33:03.357Z,84.07
2022-12-23T16:38:14.261Z,84.30
2022-12-23T16:43:17.084Z,84.09
2022-12-23T16:48:40.659Z,84.10
2022-12-23T16:53:42.493Z,84.19
2022-12-23T16:58:44.711Z,84.28
2022-12-23T17:03:46.576Z,84.41
2022-12-23T17:08:49.376Z,84.44
2022-12-23T17:13:51.194Z,84.42
2022-12-23T17:18:53.557Z,84.39
2022-12-23T17:24:03.386Z,84.40
2022-12-23T17:29:05.846Z,84.42
2022-12-23T17:34:11.863Z,84.36
2022-12-23T17:39:13.610Z,84.47
2022-12-23T17:44:17.639Z,84.46
2022-12-23T17:49:19.415Z,84.45
2022-12-23T17:54:25.010Z,84.44
2022-12-23T17:59:26.772Z,84.31
2022-12-23T18:04:28.502Z,84.35
2022-12-23T18:09:30.234Z,84.28
2022-12-23T18:14:32.213Z,84.42
2022-12-23T18:19:33.938Z,84.48
2022-12-23T18:24:35.639Z,84.40
2022-12-23T18:29:37.376Z,84.46
2022-12-23T18:34:39.306Z,84.47
2022-12-23T18:39:41.785Z,84.38
2022-12-23T18:44:44.901Z,84.32
2022-12-23T18:49:46.657Z,84.50
2022-12-23T18:54:48.443Z,84.46
2022-12-23T18:59:50.200Z,84.45
2022-12-23T19:04:52.469Z,84.42
2022-12-23T19:09:54.233Z,84.48
2022-12-23T19:14:55.995Z,84.53
2022-12-23T19:19:58.061Z,84.60
2022-12-23T19:25:05.752Z,84.48
2022-12-23T19:30:13.843Z,84.54
2022-12-23T19:35:15.816Z,84.68
2022-12-23T19:40:17.983Z,84.62
2022-12-23T19:45:19.853Z,84.71
2022-12-23T19:50:22.290Z,84.80
2022-12-23T19:55:25.444Z,85.00
2022-12-23T20:00:27.215Z,85.15
2022-12-23T20:05:28.992Z,85.10
2022-12-23T20:10:30.850Z,85.04
2022-12-23T20:15:32.675Z,84.83
2022-12-23T20:20:36.185Z,84.96
2022-12-23T20:25:37.931Z,84.91
2022-12-23T20:30:39.842Z,84.75
2022-12-23T20:35:41.828Z,84.74
2022-12-23T20:40:43.577Z,84.85
2022-12-23T20:45:46.310Z,84.79
2022-12-23T20:50:49.306Z,85.01
2022-12-23T20:55:51.126Z,85.08
2022-12-23T21:00:54.004Z,85.14
2022-12-23T21:05:56.860Z,85.06
2022-12-23T21:10:58.978Z,84.94
2022-12-23T21:16:06.393Z,84.94
2022-12-23T21:21:08.315Z,84.63
2022-12-23T21:26:20.815Z,84.64
2022-12-23T21:31:23.987Z,84.53
2022-12-23T21:36:29.169Z,84.66
2022-12-23T21:41:35.684Z,84.75
2022-12-23T21:46:37.464Z,84.51
2022-12-23T21:51:41.070Z,84.47
2022-12-23T21:56:43.406Z,84.30
2022-12-23T22:01:46.718Z,84.23
2022-12-23T22:06:48.526Z,84.11
2022-12-23T22:11:50.593Z,84.34
2022-12-23T22:16:56.277Z,84.44
2022-12-23T22:21:58.071Z,84.40
2022-12-23T22:26:59.887Z,84.52
2022-12-23T22:32:01.752Z,84.63
2022-12-23T22:37:03.481Z,84.81
2022-12-23T22:42:05.268Z,84.75
2022-12-23T22:47:07.252Z,84.82
2022-12-23T22:52:09.199Z,85.04
2022-12-23T22:57:11.458Z,85.19
2022-12-23T23:02:13.344Z,85.14
2022-12-23T23:07:15.122Z,85.31
2022-12-23T23:12:17.118Z,85.19
2022-12-23T23:17:21.036Z,85.01
2022-12-23T23:22:24.597Z,84.98
2022-12-23T23:27:26.417Z,85.08
2022-12-23T23:32:28.255Z,85.51
2022-12-23T23:37:30.042Z,85.66
2022-12-23T23:42:31.877Z,86.02
2022-12-23T23:47:34.950Z,86.49
2022-12-23T23:52:36.734Z,86.53
2022-12-23T23:57:38.464Z,86.73
